Time;durP1;ratioP1;P1;durP2;ratioP2;P2;SDS_P1;SDS_P2;PMS_P1;PMS_P2;Temp;Humidity;BMP_temperature;BMP_pressure;BME280_temperature;BME280_humidity;BME280_pressure;Samples;Min_cycle;Max_cycle;Signal;HPM_P1;HPM_P2
2021/10/16 00:00:36;;;;;;;27.88;24.00;;;10.20;93.70;;;;;;5076229;28;20028;-59
2021/10/16 00:03:03;;;;;;;30.85;23.00;;;10.20;93.70;;;;;;5055894;28;20032;-60
2021/10/16 00:05:30;;;;;;;27.17;21.98;;;10.20;93.70;;;;;;5074192;28;20039;-57
2021/10/16 00:07:56;;;;;;;27.90;23.42;;;10.10;93.80;;;;;;5073522;28;20652;-59
2021/10/16 00:10:23;;;;;;;28.40;23.25;;;10.10;93.90;;;;;;5074754;28;20037;-59
2021/10/16 00:12:49;;;;;;;29.27;23.25;;;10.10;93.80;;;;;;5075673;28;20035;-58
2021/10/16 00:15:16;;;;;;;28.13;23.50;;;10.10;93.90;;;;;;5075215;28;20039;-59
2021/10/16 00:17:43;;;;;;;26.95;21.33;;;10.10;93.90;;;;;;5057830;28;20031;-59
2021/10/16 00:20:10;;;;;;;28.75;23.77;;;10.10;93.80;;;;;;5073696;28;20465;-59
2021/10/16 00:22:36;;;;;;;29.40;23.02;;;10.10;93.90;;;;;;5074250;28;20060;-59
2021/10/16 00:25:04;;;;;;;29.70;21.67;;;10.10;94.10;;;;;;5073112;28;20500;-59
2021/10/16 00:27:30;;;;;;;29.42;23.73;;;10.10;94.30;;;;;;5075042;28;20494;-59
2021/10/16 00:29:57;;;;;;;32.30;24.67;;;10.10;94.30;;;;;;5057047;28;20469;-58
2021/10/16 00:32:24;;;;;;;34.20;26.27;;;10.10;94.30;;;;;;5060861;28;20032;-57
2021/10/16 00:34:51;;;;;;;34.28;26.30;;;10.10;94.40;;;;;;5076048;28;20024;-55
2021/10/16 00:37:17;;;;;;;38.15;25.55;;;10.10;94.50;;;;;;5056058;28;20029;-66
2021/10/16 00:39:44;;;;;;;32.47;24.80;;;10.10;94.10;;;;;;5072840;28;20032;-56
2021/10/16 00:42:10;;;;;;;36.63;25.45;;;10.10;94.10;;;;;;5076467;28;20036;-56
2021/10/16 00:44:37;;;;;;;30.15;24.52;;;10.10;94.30;;;;;;5094330;28;20032;-56
2021/10/16 00:47:04;;;;;;;31.02;26.52;;;10.00;94.30;;;;;;5075852;28;20070;-55
2021/10/16 00:49:30;;;;;;;32.00;26.67;;;10.00;94.50;;;;;;5059539;28;20036;-58
2021/10/16 00:52:00;;;;;;;35.85;29.33;;;10.00;94.70;;;;;;5090411;28;20067;-57
2021/10/16 00:54:28;;;;;;;30.80;25.38;;;10.10;94.80;;;;;;5091032;28;20027;-58
2021/10/16 00:56:56;;;;;;;34.75;27.02;;;10.10;94.80;;;;;;5089187;28;20059;-58
2021/10/16 00:59:23;;;;;;;35.83;28.30;;;10.10;94.50;;;;;;5090695;28;20036;-57
2021/10/16 01:01:49;;;;;;;35.25;28.33;;;10.00;94.50;;;;;;5072518;28;20043;-57
2021/10/16 01:04:17;;;;;;;34.85;26.42;;;10.00;94.70;;;;;;5090453;28;20534;-57
2021/10/16 01:06:51;;;;;;;36.85;29.70;;;9.90;94.90;;;;;;5072653;28;20110;-57
2021/10/16 01:09:18;;;;;;;37.42;30.42;;;9.90;94.90;;;;;;5072880;28;20051;-57
2021/10/16 01:11:51;;;;;;;34.03;28.95;;;9.90;95.20;;;;;;5092234;28;20422;-57
2021/10/16 01:14:19;;;;;;;34.63;28.52;;;9.90;95.30;;;;;;5057959;28;20028;-57
2021/10/16 01:16:49;;;;;;;40.97;32.42;;;9.90;95.20;;;;;;5074105;28;20032;-58
2021/10/16 01:19:17;;;;;;;;;;;9.90;95.30;;;;;;5075072;28;20464;-57
2021/10/16 01:21:46;;;;;;;38.88;28.75;;;9.80;95.40;;;;;;5074543;28;20370;-56
2021/10/16 01:24:15;;;;;;;38.72;31.70;;;9.80;95.30;;;;;;5074136;28;20040;-58
2021/10/16 01:26:44;;;;;;;37.65;30.30;;;9.80;95.40;;;;;;5089669;28;21013;-56
2021/10/16 01:29:14;;;;;;;39.80;31.35;;;9.80;95.50;;;;;;5074251;28;20035;-56
2021/10/16 01:31:42;;;;;;;37.78;30.25;;;9.80;95.70;;;;;;5089685;28;20043;-57
2021/10/16 01:34:08;;;;;;;39.50;28.80;;;9.80;95.70;;;;;;5091813;28;20034;-56
2021/10/16 01:36:55;;;;;;;39.13;31.08;;;9.80;95.50;;;;;;5092067;28;20036;-57
2021/10/16 01:39:26;;;;;;;;;;;9.70;95.50;;;;;;5088622;28;20035;-56
2021/10/16 01:41:53;;;;;;;37.78;31.52;;;9.70;95.50;;;;;;5091969;28;19912;-57
2021/10/16 01:44:20;;;;;;;39.97;33.53;;;9.70;95.60;;;;;;5087755;28;20059;-57
2021/10/16 01:46:48;;;;;;;41.08;31.63;;;9.70;95.60;;;;;;5072682;28;20059;-54
2021/10/16 01:49:20;;;;;;;36.05;30.08;;;9.70;95.60;;;;;;5072784;28;20039;-57
2021/10/16 01:51:49;;;;;;;;;;;9.70;95.80;;;;;;5074254;28;20032;-57
2021/10/16 01:54:17;;;;;;;37.97;30.40;;;9.70;96.00;;;;;;5056718;28;19908;-56
2021/10/16 01:56:53;;;;;;;41.17;33.15;;;9.70;95.80;;;;;;5073901;28;20028;-57
2021/10/16 01:59:22;;;;;;;36.70;30.65;;;9.70;95.70;;;;;;5087697;28;20468;-57
2021/10/16 02:02:07;;;;;;;39.92;32.05;;;9.60;95.80;;;;;;5089720;28;20028;-56
2021/10/16 02:04:39;;;;;;;36.38;29.80;;;9.60;95.80;;;;;;5073473;28;20024;-52
2021/10/16 02:07:06;;;;;;;38.53;30.63;;;9.60;95.70;;;;;;5073660;28;20032;-56
2021/10/16 02:09:35;;;;;;;37.17;30.83;;;9.60;95.80;;;;;;5073176;28;20048;-57
2021/10/16 02:12:01;;;;;;;42.80;31.65;;;9.60;95.70;;;;;;5070886;28;20020;-57
2021/10/16 02:14:32;;;;;;;;;;;9.50;95.70;;;;;;5073822;28;20035;-56
2021/10/16 02:17:02;;;;;;;33.92;27.90;;;9.50;95.80;;;;;;5071015;28;20267;-57
2021/10/16 02:19:28;;;;;;;35.50;29.15;;;9.50;95.90;;;;;;5057074;28;20032;-56
2021/10/16 02:21:57;;;;;;;36.00;29.38;;;9.40;96.00;;;;;;5072148;28;20040;-55
2021/10/16 02:24:25;;;;;;;40.03;30.70;;;9.50;96.10;;;;;;5073416;28;20028;-57
2021/10/16 02:26:52;;;;;;;34.72;29.30;;;9.40;96.10;;;;;;5073158;28;20461;-55
2021/10/16 02:29:21;;;;;;;37.05;30.63;;;9.40;96.10;;;;;;5060046;28;20039;-56
2021/10/16 02:31:59;;;;;;;33.80;28.38;;;9.40;96.20;;;;;;5052900;28;20024;-57
2021/10/16 02:34:25;;;;;;;34.38;27.77;;;9.40;96.20;;;;;;5069725;28;20028;-57
2021/10/16 02:36:56;;;;;;;35.28;27.85;;;9.40;96.10;;;;;;5054460;28;20031;-57
2021/10/16 02:39:24;;;;;;;36.00;27.83;;;9.40;96.00;;;;;;5054728;28;20055;-57
2021/10/16 02:41:51;;;;;;;34.58;27.70;;;9.40;96.10;;;;;;5055326;28;20031;-57
2021/10/16 02:44:17;;;;;;;35.55;27.42;;;9.40;96.10;;;;;;5053998;28;20040;-57
2021/10/16 02:46:47;;;;;;;36.92;28.90;;;9.30;96.30;;;;;;5053204;28;20039;-57
2021/10/16 02:49:14;;;;;;;31.50;25.65;;;9.30;96.30;;;;;;5073110;28;20044;-56
2021/10/16 02:51:40;;;;;;;34.88;26.77;;;9.30;96.40;;;;;;5076612;28;20024;-54
2021/10/16 02:54:07;;;;;;;32.38;27.08;;;9.30;96.50;;;;;;5076716;28;20024;-55
2021/10/16 02:56:33;;;;;;;32.97;26.67;;;9.30;96.50;;;;;;5056444;28;20032;-57
2021/10/16 02:59:08;;;;;;;32.00;25.35;;;9.30;96.60;;;;;;5059091;28;20036;-56
2021/10/16 03:01:44;;;;;;;32.72;24.60;;;9.30;96.50;;;;;;5057190;28;20036;-56
2021/10/16 03:04:11;;;;;;;34.38;26.38;;;9.30;96.30;;;;;;5056468;28;20040;-57
2021/10/16 03:06:39;;;;;;;34.33;26.85;;;9.30;96.30;;;;;;5058727;28;20024;-56
2021/10/16 03:09:06;;;;;;;35.45;28.55;;;9.20;96.30;;;;;;5058147;28;20384;-56
2021/10/16 03:11:35;;;;;;;33.85;25.52;;;9.20;96.50;;;;;;5059996;28;20031;-53
2021/10/16 03:14:02;;;;;;;33.55;28.05;;;9.20;96.50;;;;;;5072656;28;20028;-56
2021/10/16 03:16:29;;;;;;;32.92;26.38;;;9.20;96.70;;;;;;5075131;28;20040;-57
2021/10/16 03:18:56;;;;;;;32.53;26.77;;;9.20;96.70;;;;;;5056505;28;20032;-57
2021/10/16 03:21:23;;;;;;;33.03;25.33;;;9.20;96.80;;;;;;5074078;28;20043;-55
2021/10/16 03:23:50;;;;;;;35.63;26.35;;;9.20;96.90;;;;;;5057724;28;20055;-56
2021/10/16 03:26:16;;;;;;;34.05;27.45;;;9.20;96.90;;;;;;5058173;28;20489;-56
2021/10/16 03:28:43;;;;;;;33.67;25.83;;;9.20;96.80;;;;;;5060303;28;20374;-57
2021/10/16 03:31:10;;;;;;;35.85;28.13;;;9.20;96.80;;;;;;5058616;28;20384;-56
2021/10/16 03:33:37;;;;;;;37.55;28.42;;;9.20;97.00;;;;;;5058256;28;20388;-56
2021/10/16 03:36:04;;;;;;;34.47;29.23;;;9.10;97.00;;;;;;5077545;28;20029;-54
2021/10/16 03:38:31;;;;;;;37.47;28.30;;;9.10;97.10;;;;;;5056393;28;20040;-57
2021/10/16 03:40:58;;;;;;;36.58;28.88;;;9.10;97.30;;;;;;5057519;28;20399;-56
2021/10/16 03:43:25;;;;;;;38.15;29.60;;;9.10;97.40;;;;;;5073608;28;20048;-57
2021/10/16 03:45:51;;;;;;;36.88;30.65;;;9.10;97.40;;;;;;5056532;28;20488;-57
2021/10/16 03:48:19;;;;;;;39.17;31.45;;;9.10;97.30;;;;;;5055822;28;20036;-57
2021/10/16 03:50:46;;;;;;;43.95;31.63;;;9.20;97.40;;;;;;5058246;28;20047;-55
2021/10/16 03:53:13;;;;;;;42.45;32.85;;;9.10;97.30;;;;;;5058255;28;20048;-57
2021/10/16 03:55:40;;;;;;;37.22;29.40;;;9.20;97.30;;;;;;5075110;28;20025;-57
2021/10/16 03:58:07;;;;;;;36.78;30.52;;;9.20;97.30;;;;;;5057734;28;20503;-57
2021/10/16 04:00:35;;;;;;;35.40;29.90;;;9.10;97.10;;;;;;5039227;28;20029;-57
2021/10/16 04:03:05;;;;;;;35.75;28.25;;;9.10;97.10;;;;;;5072569;28;20036;-56
2021/10/16 04:05:34;;;;;;;37.53;29.40;;;9.10;97.00;;;;;;5055357;28;20484;-57
2021/10/16 04:08:01;;;;;;;38.53;31.13;;;9.10;97.00;;;;;;5043405;28;20043;-56
2021/10/16 04:10:28;;;;;;;40.35;31.40;;;9.00;97.00;;;;;;5058398;28;20051;-57
2021/10/16 04:12:55;;;;;;;40.38;30.98;;;9.00;97.00;;;;;;5057786;28;20036;-56
2021/10/16 04:15:21;;;;;;;40.53;31.70;;;9.00;97.10;;;;;;5069026;28;20507;-56
2021/10/16 04:17:49;;;;;;;42.33;31.67;;;9.00;97.00;;;;;;5073687;28;20044;-56
2021/10/16 04:20:16;;;;;;;40.10;31.70;;;9.00;97.10;;;;;;5038856;28;20369;-58
2021/10/16 04:22:49;;;;;;;41.75;33.03;;;9.00;97.30;;;;;;5055221;28;20503;-56
2021/10/16 04:25:16;;;;;;;45.17;33.75;;;9.00;97.20;;;;;;5059644;28;20500;-58
2021/10/16 04:27:45;;;;;;;44.30;34.08;;;9.00;97.30;;;;;;5056818;28;20481;-57
2021/10/16 04:30:35;;;;;;;44.03;33.63;;;8.90;97.50;;;;;;5059769;28;20047;-56
2021/10/16 04:33:03;;;;;;;39.90;32.55;;;8.90;97.60;;;;;;5070451;28;20039;-57
2021/10/16 04:35:30;;;;;;;42.50;33.92;;;8.90;97.70;;;;;;5075897;28;20039;-57
2021/10/16 04:37:56;;;;;;;48.88;34.05;;;8.90;97.60;;;;;;5071150;28;20032;-55
2021/10/16 04:40:26;;;;;;;39.72;33.70;;;8.90;97.70;;;;;;5055573;28;20476;-56
2021/10/16 04:42:53;;;;;;;42.22;33.72;;;9.00;97.70;;;;;;5055525;28;20043;-56
2021/10/16 04:45:22;;;;;;;49.63;33.83;;;8.90;97.80;;;;;;5055083;28;20040;-56
2021/10/16 04:47:51;;;;;;;42.13;33.58;;;9.00;97.80;;;;;;5054919;28;20032;-56
2021/10/16 04:50:17;;;;;;;41.38;33.50;;;8.90;97.70;;;;;;5074774;28;20024;-56
2021/10/16 04:52:47;;;;;;;41.67;33.13;;;8.90;97.90;;;;;;5058532;28;20035;-57
2021/10/16 04:55:23;;;;;;;45.03;33.88;;;9.00;97.80;;;;;;5058216;28;20472;-57
2021/10/16 04:57:51;;;;;;;44.20;33.63;;;9.00;97.80;;;;;;5057219;28;20479;-57
2021/10/16 05:00:18;;;;;;;45.67;34.03;;;9.00;97.80;;;;;;5055157;28;20660;-58
2021/10/16 05:02:45;;;;;;;43.30;32.70;;;9.00;97.30;;;;;;5053892;28;20050;-57
2021/10/16 05:05:12;;;;;;;41.03;31.40;;;9.00;97.20;;;;;;5054194;28;20041;-56
2021/10/16 05:07:41;;;;;;;43.08;32.85;;;8.90;97.30;;;;;;5062165;28;20029;-59
2021/10/16 05:10:10;;;;;;;40.53;31.52;;;8.90;97.20;;;;;;5057436;28;20459;-56
2021/10/16 05:12:36;;;;;;;40.42;30.58;;;9.00;97.10;;;;;;5054488;28;20044;-54
2021/10/16 05:15:04;;;;;;;41.08;31.52;;;8.90;96.90;;;;;;5056267;28;20055;-56
2021/10/16 05:17:33;;;;;;;39.67;31.33;;;8.80;97.00;;;;;;5038550;28;20033;-57
2021/10/16 05:20:00;;;;;;;37.95;30.58;;;8.80;97.10;;;;;;5054477;28;20024;-58
2021/10/16 05:22:26;;;;;;;39.97;32.55;;;8.80;97.10;;;;;;5053624;28;20036;-55
2021/10/16 05:24:53;;;;;;;42.17;30.75;;;8.80;97.30;;;;;;5076134;28;20032;-58
2021/10/16 05:27:20;;;;;;;36.53;30.20;;;8.80;97.30;;;;;;5055821;28;20051;-56
2021/10/16 05:29:46;;;;;;;40.22;31.10;;;8.80;97.30;;;;;;5055821;28;20020;-56
2021/10/16 05:32:13;;;;;;;36.15;28.45;;;8.80;97.20;;;;;;5073415;28;20020;-57
2021/10/16 05:34:39;;;;;;;38.53;30.48;;;8.80;97.10;;;;;;5073984;28;20028;-57
2021/10/16 05:37:08;;;;;;;37.80;29.95;;;8.80;97.00;;;;;;5041711;28;20041;-57
2021/10/16 05:39:36;;;;;;;37.25;28.13;;;8.80;97.10;;;;;;5068963;28;20044;-57
2021/10/16 05:42:03;;;;;;;34.13;27.02;;;8.80;97.20;;;;;;5058814;28;20028;-57
2021/10/16 05:44:30;;;;;;;33.88;26.80;;;8.80;97.30;;;;;;5071528;28;20476;-57
2021/10/16 05:46:59;;;;;;;32.28;23.48;;;8.80;97.20;;;;;;5053786;28;20039;-55
2021/10/16 05:49:26;;;;;;;32.00;23.17;;;8.90;97.30;;;;;;5055857;28;20039;-54
2021/10/16 05:51:52;;;;;;;30.20;23.83;;;8.90;97.40;;;;;;5055688;28;20041;-55
2021/10/16 05:54:19;;;;;;;31.05;23.98;;;9.00;97.40;;;;;;5074853;28;20031;-56
2021/10/16 05:56:45;;;;;;;31.63;24.02;;;8.90;97.60;;;;;;5053974;28;20040;-55
2021/10/16 05:59:12;;;;;;;29.70;23.83;;;9.00;97.60;;;;;;5054711;28;20036;-56
2021/10/16 06:01:39;;;;;;;28.17;22.95;;;9.00;97.40;;;;;;5054080;28;20499;-56
2021/10/16 06:04:05;;;;;;;29.92;23.38;;;9.00;97.30;;;;;;5070863;28;20380;-56
2021/10/16 06:06:32;;;;;;;30.38;25.08;;;9.00;97.30;;;;;;5055768;28;20031;-56
2021/10/16 06:08:58;;;;;;;35.03;26.58;;;9.00;97.50;;;;;;5054815;28;20025;-58
2021/10/16 06:11:25;;;;;;;34.47;26.25;;;9.10;97.70;;;;;;5074695;28;20036;-58
2021/10/16 06:13:52;;;;;;;32.97;25.65;;;9.10;97.80;;;;;;5054628;28;20032;-57
2021/10/16 06:16:18;;;;;;;35.67;26.80;;;9.10;97.80;;;;;;5054726;28;20043;-56
2021/10/16 06:18:45;;;;;;;31.20;25.83;;;9.10;97.60;;;;;;5055632;28;20095;-57
2021/10/16 06:21:13;;;;;;;34.17;26.38;;;9.20;97.50;;;;;;5055292;28;20039;-57
2021/10/16 06:23:43;;;;;;;36.13;28.33;;;9.20;97.40;;;;;;5058665;28;20028;-57
2021/10/16 06:26:11;;;;;;;36.33;28.40;;;9.30;97.30;;;;;;5062082;28;20036;-57
2021/10/16 06:28:38;;;;;;;32.83;26.42;;;9.30;97.20;;;;;;5061029;28;20025;-56
2021/10/16 06:31:05;;;;;;;33.65;26.10;;;9.30;97.00;;;;;;5056866;28;20384;-57
2021/10/16 06:33:32;;;;;;;35.17;26.33;;;9.40;96.90;;;;;;5059537;28;20029;-55
2021/10/16 06:36:00;;;;;;;34.42;26.48;;;9.50;96.60;;;;;;5061168;28;20047;-57
2021/10/16 06:38:43;;;;;;;33.50;25.08;;;9.60;96.50;;;;;;5060756;28;20652;-56
2021/10/16 06:41:10;;;;;;;32.22;24.88;;;9.70;96.70;;;;;;5059464;28;20024;-57
2021/10/16 06:43:59;;;;;;;31.42;25.88;;;9.80;96.40;;;;;;5037778;28;20522;-58
2021/10/16 06:46:31;;;;;;;32.17;24.40;;;9.90;95.80;;;;;;5056978;28;20392;-57
2021/10/16 06:49:17;;;;;;;27.10;22.67;;;9.90;95.30;;;;;;5044794;28;20491;-57
2021/10/16 06:51:44;;;;;;;33.38;24.30;;;10.00;95.10;;;;;;5042127;28;20029;-57
2021/10/16 06:54:12;;;;;;;27.73;21.55;;;10.10;94.70;;;;;;5059415;28;20044;-57
2021/10/16 06:56:40;;;;;;;30.40;23.20;;;10.10;94.30;;;;;;5073219;28;20499;-56
2021/10/16 06:59:07;;;;;;;29.35;23.05;;;10.10;94.10;;;;;;5057518;28;20024;-53
2021/10/16 07:01:33;;;;;;;30.85;22.25;;;10.20;93.80;;;;;;5058040;28;20020;-58
2021/10/16 07:04:12;;;;;;;29.75;22.70;;;10.30;93.60;;;;;;5057915;28;20043;-57
2021/10/16 07:06:40;;;;;;;27.63;20.95;;;10.40;93.50;;;;;;5058977;28;20028;-58
2021/10/16 07:09:10;;;;;;;30.30;22.35;;;10.40;93.30;;;;;;5058335;28;20025;-57
2021/10/16 07:11:37;;;;;;;28.77;22.30;;;10.50;92.90;;;;;;5077847;28;20040;-57
2021/10/16 07:14:04;;;;;;;26.42;22.08;;;10.50;93.30;;;;;;5075298;28;20033;-56
2021/10/16 07:16:30;;;;;;;25.75;21.20;;;10.50;93.20;;;;;;5058035;28;20837;-56
2021/10/16 07:18:57;;;;;;;28.63;22.40;;;10.60;93.00;;;;;;5074171;28;20040;-57
2021/10/16 07:21:23;;;;;;;26.20;20.85;;;10.60;92.80;;;;;;5074324;28;20376;-57
2021/10/16 07:23:51;;;;;;;27.45;21.08;;;10.70;92.90;;;;;;5076465;28;20028;-58
2021/10/16 07:26:18;;;;;;;29.70;22.00;;;10.70;92.50;;;;;;5075055;28;20392;-57
2021/10/16 07:28:46;;;;;;;28.25;21.10;;;10.80;92.60;;;;;;5059816;28;20036;-59
2021/10/16 07:31:13;;;;;;;23.98;20.20;;;10.90;92.50;;;;;;5073968;28;20025;-57
2021/10/16 07:33:40;;;;;;;29.60;21.67;;;10.90;92.10;;;;;;5058380;28;20392;-56
2021/10/16 07:36:06;;;;;;;27.48;22.08;;;11.00;91.70;;;;;;5076704;28;20035;-58
2021/10/16 07:38:33;;;;;;;28.63;22.02;;;11.10;91.50;;;;;;5073745;28;20049;-59
2021/10/16 07:40:59;;;;;;;27.15;21.08;;;11.20;91.30;;;;;;5054989;28;20029;-57
2021/10/16 07:43:26;;;;;;;25.98;21.48;;;11.20;91.20;;;;;;5073687;28;20392;-57
2021/10/16 07:45:52;;;;;;;24.95;21.05;;;11.30;91.40;;;;;;5074143;28;20040;-56
2021/10/16 07:48:19;;;;;;;23.58;19.90;;;11.30;91.20;;;;;;5055144;28;20503;-58
2021/10/16 07:50:45;;;;;;;29.38;21.15;;;11.50;91.20;;;;;;5076933;28;20348;-57
2021/10/16 07:53:12;;;;;;;26.15;19.80;;;11.50;91.30;;;;;;5080254;28;20032;-57
2021/10/16 07:55:38;;;;;;;27.00;20.05;;;11.60;91.20;;;;;;5092484;28;20543;-57
2021/10/16 07:58:04;;;;;;;26.30;21.00;;;11.70;91.20;;;;;;5094498;28;20043;-56
2021/10/16 08:00:31;;;;;;;26.58;21.52;;;11.80;91.00;;;;;;5076807;28;20387;-56
2021/10/16 08:02:57;;;;;;;31.42;23.40;;;11.80;90.60;;;;;;5094120;28;20051;-63
2021/10/16 08:05:25;;;;;;;31.10;23.40;;;11.90;90.10;;;;;;5083203;28;20029;-51
2021/10/16 08:07:52;;;;;;;28.98;21.60;;;12.00;88.40;;;;;;5088830;28;20024;-56
2021/10/16 08:10:21;;;;;;;30.52;22.67;;;12.00;85.20;;;;;;5075214;28;20048;-54
2021/10/16 08:12:48;;;;;;;31.60;22.25;;;12.10;85.50;;;;;;5091636;28;20483;-51
2021/10/16 08:15:15;;;;;;;30.77;23.05;;;12.10;84.30;;;;;;5092416;28;20616;-55
2021/10/16 08:17:42;;;;;;;29.65;24.00;;;12.10;83.70;;;;;;5075550;28;20020;-55
2021/10/16 08:20:09;;;;;;;30.40;22.15;;;12.10;83.00;;;;;;5093454;28;20028;-55
2021/10/16 08:22:41;;;;;;;29.58;22.65;;;12.20;83.30;;;;;;5089039;28;20051;-55
2021/10/16 08:25:08;;;;;;;28.40;20.98;;;12.20;83.60;;;;;;5093098;28;20487;-54
2021/10/16 08:27:35;;;;;;;25.73;22.38;;;12.30;83.70;;;;;;5092378;28;20403;-55
2021/10/16 08:30:04;;;;;;;26.67;22.27;;;12.30;83.30;;;;;;5092720;28;20376;-54
2021/10/16 08:32:31;;;;;;;23.38;20.83;;;12.40;83.80;;;;;;5091748;28;20056;-57
2021/10/16 08:34:58;;;;;;;25.05;21.63;;;12.40;83.80;;;;;;5093536;28;20035;-57
2021/10/16 08:37:24;;;;;;;27.98;21.52;;;12.50;84.10;;;;;;5093701;28;20550;-58
2021/10/16 08:39:51;;;;;;;24.23;20.13;;;12.50;83.30;;;;;;5092773;28;20484;-57
2021/10/16 08:42:17;;;;;;;26.25;20.50;;;12.50;82.60;;;;;;5086888;28;20503;-55
2021/10/16 08:44:44;;;;;;;24.05;20.55;;;12.60;82.70;;;;;;5084247;28;20024;-55
2021/10/16 08:47:12;;;;;;;26.83;20.83;;;12.60;81.90;;;;;;5082983;28;20589;-53
2021/10/16 08:49:40;;;;;;;26.90;21.02;;;12.70;81.90;;;;;;5064137;28;20036;-55
2021/10/16 08:52:07;;;;;;;28.60;22.00;;;12.80;81.60;;;;;;5075570;28;20361;-59
2021/10/16 08:54:37;;;;;;;29.17;21.80;;;12.80;81.50;;;;;;5080525;28;20468;-55
2021/10/16 08:57:04;;;;;;;26.45;21.38;;;12.90;82.20;;;;;;5084427;28;20037;-58
2021/10/16 08:59:30;;;;;;;26.63;21.20;;;13.00;81.60;;;;;;5081581;28;20036;-57
2021/10/16 09:02:05;;;;;;;32.05;23.90;;;13.00;81.60;;;;;;5083055;28;20036;-56
2021/10/16 09:04:32;;;;;;;32.72;23.38;;;13.10;81.80;;;;;;5083753;28;20036;-54
2021/10/16 09:07:00;;;;;;;29.20;22.50;;;13.20;82.00;;;;;;5083010;28;20542;-58
2021/10/16 09:09:29;;;;;;;27.75;22.30;;;13.30;82.30;;;;;;5083242;28;20463;-52
2021/10/16 09:11:56;;;;;;;31.30;23.38;;;13.30;82.30;;;;;;5093847;28;20043;-70
2021/10/16 09:14:31;;;;;;;35.22;25.60;;;13.40;82.80;;;;;;5074306;28;20031;-68
2021/10/16 09:17:00;;;;;;;32.42;25.25;;;13.60;82.70;;;;;;5074243;28;20039;-68
2021/10/16 09:19:32;;;;;;;33.70;27.00;;;13.50;83.40;;;;;;5093236;28;20051;-69
2021/10/16 09:22:08;;;;;;;33.28;25.83;;;13.60;83.50;;;;;;5073925;28;20475;-73
2021/10/16 09:24:51;;;;;;;32.33;25.60;;;13.60;83.70;;;;;;5085763;28;20478;-68
2021/10/16 09:27:18;;;;;;;33.00;26.02;;;13.60;83.80;;;;;;5092879;28;20040;-68
2021/10/16 09:29:48;;;;;;;32.20;26.20;;;13.60;83.50;;;;;;5092965;28;20032;-68
2021/10/16 09:32:17;;;;;;;34.00;26.15;;;13.60;83.30;;;;;;5088955;28;20032;-68
2021/10/16 09:34:45;;;;;;;33.63;27.80;;;13.70;83.50;;;;;;5082617;28;20032;-68
2021/10/16 09:37:14;;;;;;;32.90;27.00;;;13.70;82.60;;;;;;5084171;28;20487;-68
2021/10/16 09:39:54;;;;;;;41.75;29.00;;;13.70;82.90;;;;;;5065075;28;20047;-68
2021/10/16 09:42:29;;;;;;;31.48;27.23;;;13.70;82.50;;;;;;5087233;28;20042;-68
2021/10/16 09:45:01;;;;;;;35.55;27.77;;;13.80;82.30;;;;;;5084790;28;20044;-68
2021/10/16 09:47:27;;;;;;;36.97;30.10;;;13.90;82.10;;;;;;5087307;28;20036;-68
2021/10/16 09:50:03;;;;;;;36.75;31.05;;;13.80;82.00;;;;;;5078598;28;20044;-68
2021/10/16 09:52:41;;;;;;;37.05;29.38;;;13.70;82.70;;;;;;5087808;28;20117;-68
2021/10/16 09:55:13;;;;;;;39.58;32.03;;;13.80;82.80;;;;;;5078582;28;20054;-68
2021/10/16 09:57:45;;;;;;;38.10;31.65;;;13.80;82.60;;;;;;5084333;28;20032;-68
2021/10/16 10:00:14;;;;;;;39.17;31.13;;;13.90;81.90;;;;;;5087268;28;20066;-68
2021/10/16 10:02:44;;;;;;;42.63;33.95;;;14.00;80.70;;;;;;5090310;28;20039;-68
2021/10/16 10:05:10;;;;;;;38.28;32.22;;;14.10;80.10;;;;;;5087551;28;20058;-68
2021/10/16 10:07:37;;;;;;;40.88;34.70;;;14.10;80.00;;;;;;5085371;28;20054;-68
2021/10/16 10:10:05;;;;;;;40.28;33.33;;;14.20;79.10;;;;;;5080955;28;20059;-68
2021/10/16 10:12:33;;;;;;;40.10;33.65;;;14.20;77.60;;;;;;5080079;28;20032;-68
2021/10/16 10:15:00;;;;;;;40.88;34.72;;;14.20;77.30;;;;;;5076486;28;20040;-68
2021/10/16 10:17:32;;;;;;;40.05;33.00;;;14.30;77.30;;;;;;5077226;28;20036;-68
2021/10/16 10:20:12;;;;;;;41.03;34.30;;;14.40;76.90;;;;;;5083588;28;20059;-68
2021/10/16 10:22:44;;;;;;;40.55;35.28;;;14.40;76.60;;;;;;5075122;28;20044;-68
2021/10/16 10:25:19;;;;;;;42.28;34.75;;;14.50;76.00;;;;;;5078135;28;20047;-68
2021/10/16 10:27:46;;;;;;;40.45;34.28;;;14.50;75.90;;;;;;5086221;28;20051;-68
2021/10/16 10:30:41;;;;;;;45.85;35.00;;;14.60;76.00;;;;;;5064496;28;20056;-68
2021/10/16 10:33:16;;;;;;;40.85;36.40;;;14.60;73.70;;;;;;5076690;28;20445;-67
2021/10/16 10:35:58;;;;;;;45.55;36.92;;;14.70;74.50;;;;;;5074487;28;20036;-67
2021/10/16 10:38:29;;;;;;;41.47;34.40;;;14.80;75.90;;;;;;5075403;28;20040;-67
2021/10/16 10:40:56;;;;;;;40.65;35.83;;;14.80;75.50;;;;;;5070000;28;20410;-68
2021/10/16 10:43:39;;;;;;;43.72;35.88;;;14.80;75.80;;;;;;5076406;28;20049;-68
2021/10/16 10:46:13;;;;;;;39.92;34.75;;;14.90;75.40;;;;;;5081927;28;20040;-68
2021/10/16 10:48:43;;;;;;;43.90;37.53;;;14.90;75.00;;;;;;5080909;28;20380;-68
2021/10/16 10:51:10;;;;;;;46.42;37.63;;;14.90;74.40;;;;;;5077974;28;20062;-67
2021/10/16 10:53:39;;;;;;;41.42;35.28;;;15.00;74.50;;;;;;5082712;28;20020;-67
2021/10/16 10:56:08;;;;;;;44.95;38.38;;;15.00;74.20;;;;;;5075471;28;20041;-68
2021/10/16 10:58:50;;;;;;;43.90;37.08;;;15.10;74.40;;;;;;5085017;28;20048;-67
2021/10/16 11:01:43;;;;;;;40.90;34.60;;;15.10;74.20;;;;;;5079022;28;20043;-67
2021/10/16 11:04:30;;;;;;;44.47;36.75;;;15.10;72.40;;;;;;5082394;28;20099;-68
2021/10/16 11:06:59;;;;;;;40.45;34.00;;;15.10;72.20;;;;;;5083470;28;20044;-68
2021/10/16 11:09:25;;;;;;;40.42;34.20;;;15.10;71.50;;;;;;5081554;28;20361;-68
2021/10/16 11:11:52;;;;;;;41.47;36.15;;;15.20;72.30;;;;;;5085418;28;20707;-68
2021/10/16 11:14:19;;;;;;;41.47;35.00;;;15.20;70.70;;;;;;5083415;28;20492;-68
2021/10/16 11:16:56;;;;;;;40.70;35.15;;;15.20;70.30;;;;;;5077841;28;20040;-67
2021/10/16 11:19:23;;;;;;;42.65;36.60;;;15.30;70.80;;;;;;5077481;28;20484;-67
2021/10/16 11:21:58;;;;;;;49.97;35.88;;;15.30;71.00;;;;;;5086458;28;20032;-68
2021/10/16 11:24:27;;;;;;;41.72;36.20;;;15.40;72.00;;;;;;5088652;28;20055;-66
2021/10/16 11:26:54;;;;;;;43.20;35.30;;;15.50;72.00;;;;;;5078752;28;20040;-69
2021/10/16 11:29:46;;;;;;;38.95;34.83;;;15.50;71.60;;;;;;5059823;28;20500;-66
2021/10/16 11:32:17;;;;;;;43.13;35.15;;;15.60;72.20;;;;;;5054558;28;20036;-65
2021/10/16 11:34:55;;;;;;;43.78;35.95;;;15.70;72.30;;;;;;5078754;28;20047;-66
2021/10/16 11:37:48;;;;;;;44.13;36.85;;;15.70;71.10;;;;;;5061315;28;20043;-68
2021/10/16 11:40:18;;;;;;;38.97;34.70;;;15.70;70.80;;;;;;5083140;28;20051;-68
2021/10/16 11:42:48;;;;;;;40.72;34.72;;;15.70;70.70;;;;;;5086597;28;20384;-67
2021/10/16 11:45:20;;;;;;;42.50;35.47;;;15.70;70.50;;;;;;5080087;28;20037;-67
2021/10/16 11:47:49;;;;;;;40.38;34.88;;;15.70;70.10;;;;;;5059866;28;20491;-67
2021/10/16 11:50:19;;;;;;;42.85;34.60;;;15.80;70.40;;;;;;5080010;28;20521;-73
2021/10/16 11:52:48;;;;;;;42.20;35.03;;;15.80;70.60;;;;;;5084527;28;20032;-70
2021/10/16 11:55:23;;;;;;;45.42;33.53;;;15.90;70.10;;;;;;5092683;28;20020;-71
2021/10/16 11:57:50;;;;;;;41.05;33.40;;;15.90;69.10;;;;;;5089162;28;20020;-69
2021/10/16 12:00:19;;;;;;;43.05;34.60;;;15.90;68.50;;;;;;5091667;28;20044;-67
2021/10/16 12:02:46;;;;;;;40.13;33.92;;;15.90;68.70;;;;;;5070514;28;20486;-65
2021/10/16 12:05:19;;;;;;;40.72;33.42;;;15.90;68.40;;;;;;5088946;28;20036;-66
2021/10/16 12:07:49;;;;;;;35.67;31.70;;;15.90;69.30;;;;;;5067602;28;20044;-65
2021/10/16 12:10:20;;;;;;;39.50;34.08;;;16.00;69.50;;;;;;5078051;28;20060;-65
2021/10/16 12:13:07;;;;;;;36.85;31.85;;;16.00;70.00;;;;;;5063477;28;20055;-63
2021/10/16 12:15:45;;;;;;;37.75;32.33;;;16.10;69.10;;;;;;5082805;28;20032;-69
2021/10/16 12:18:16;;;;;;;38.67;32.25;;;16.10;67.10;;;;;;5081436;28;20043;-67
2021/10/16 12:20:45;;;;;;;36.47;31.55;;;16.10;66.60;;;;;;5080807;28;20031;-68
2021/10/16 12:23:11;;;;;;;39.08;31.75;;;16.10;66.50;;;;;;5077181;28;20032;-68
2021/10/16 12:25:43;;;;;;;35.75;31.80;;;16.10;67.30;;;;;;5079424;28;20533;-70
2021/10/16 12:28:10;;;;;;;40.55;31.52;;;16.10;67.30;;;;;;5076710;28;20043;-67
2021/10/16 12:30:37;;;;;;;34.70;30.77;;;16.20;66.80;;;;;;5075698;28;20036;-68
2021/10/16 12:33:06;;;;;;;36.15;32.00;;;16.20;66.00;;;;;;5074631;28;20033;-69
2021/10/16 12:35:33;;;;;;;35.85;31.20;;;16.20;66.60;;;;;;5077692;28;20029;-67
2021/10/16 12:38:01;;;;;;;40.70;31.77;;;16.20;66.00;;;;;;5079134;28;20021;-67
2021/10/16 12:40:38;;;;;;;38.25;30.45;;;16.20;66.00;;;;;;5077147;28;20047;-67
2021/10/16 12:43:05;;;;;;;34.00;29.98;;;16.20;65.00;;;;;;5078889;28;20039;-69